Terminal Aerodrome Forecast
Issued by NWS Lake Charles, LA

Home | Current Version | Previous Version | Text Only | Print | Product List | Glossary On
Versions: 1 2 3 4 5 6 7 8 9 10 11 12 13 14 15 16
488
FTUS44 KLCH 292109 AAA
TAFLFT
TAF AMD
KLFT 292109Z 2921/3018 16016G24KT P6SM BKN025
     FM300100 16011G17KT P6SM VCSH BKN020
     FM300900 16009G16KT P6SM SHRA SCT009 OVC015=

USA.gov is the U.S. government's official web portal to all federal, state and local government web resources and services.